Terminal Aerodrome Forecast
Issued by NWS

Home | Current Version | Previous Version | Text Only | Print | Product List | Glossary On
Versions: 1 2 3 4 5 6 7 8 9 10 11 12 13 14 15 16
000
FTUS46 KSEW 181700
TAFBFI
TAF
KBFI 181725Z 1818/1918 18007KT P6SM VCSH BKN030 BKN050 OVC100
      TEMPO 1818/1820 SCT010 BKN015
     FM190700 19005KT P6SM BKN020 OVC035
     FM191200 18005KT P6SM OVC020=

USA.gov is the U.S. government's official web portal to all federal, state and local government web resources and services.